sensor_id;sensor_type;location;lat;lon;timestamp;P1;durP1;ratioP1;P2;durP2;ratioP2
63046;SDS011;62025;39.238;9.126;2023-11-19T00:00:47;12.00;;;3.13;;
63046;SDS011;62025;39.238;9.126;2023-11-19T00:03:13;8.90;;;3.25;;
63046;SDS011;62025;39.238;9.126;2023-11-19T00:05:39;11.35;;;3.28;;
63046;SDS011;62025;39.238;9.126;2023-11-19T00:10:34;8.73;;;3.05;;
63046;SDS011;62025;39.238;9.126;2023-11-19T00:12:59;11.93;;;3.47;;
63046;SDS011;62025;39.238;9.126;2023-11-19T00:15:25;9.82;;;3.35;;
63046;SDS011;62025;39.238;9.126;2023-11-19T00:17:51;8.70;;;3.13;;
63046;SDS011;62025;39.238;9.126;2023-11-19T00:20:17;10.65;;;3.10;;
63046;SDS011;62025;39.238;9.126;2023-11-19T00:22:44;7.90;;;3.20;;
63046;SDS011;62025;39.238;9.126;2023-11-19T00:25:13;9.25;;;2.92;;
63046;SDS011;62025;39.238;9.126;2023-11-19T00:27:39;13.35;;;3.42;;
63046;SDS011;62025;39.238;9.126;2023-11-19T00:30:05;9.02;;;2.80;;
63046;SDS011;62025;39.238;9.126;2023-11-19T00:32:32;11.07;;;2.75;;
63046;SDS011;62025;39.238;9.126;2023-11-19T00:34:59;14.07;;;3.00;;
63046;SDS011;62025;39.238;9.126;2023-11-19T00:37:25;11.95;;;2.80;;
63046;SDS011;62025;39.238;9.126;2023-11-19T00:39:51;6.50;;;2.90;;
63046;SDS011;62025;39.238;9.126;2023-11-19T00:42:17;10.88;;;2.75;;
63046;SDS011;62025;39.238;9.126;2023-11-19T00:44:43;10.68;;;2.65;;
63046;SDS011;62025;39.238;9.126;2023-11-19T00:47:09;16.38;;;3.78;;
63046;SDS011;62025;39.238;9.126;2023-11-19T00:49:35;8.40;;;2.33;;
63046;SDS011;62025;39.238;9.126;2023-11-19T00:52:00;9.40;;;2.83;;
63046;SDS011;62025;39.238;9.126;2023-11-19T00:54:27;11.75;;;2.53;;
63046;SDS011;62025;39.238;9.126;2023-11-19T00:56:53;13.52;;;2.70;;
63046;SDS011;62025;39.238;9.126;2023-11-19T00:59:20;10.27;;;3.15;;
63046;SDS011;62025;39.238;9.126;2023-11-19T01:01:46;10.55;;;2.65;;
63046;SDS011;62025;39.238;9.126;2023-11-19T01:04:16;8.68;;;2.25;;
63046;SDS011;62025;39.238;9.126;2023-11-19T01:06:42;10.20;;;2.53;;
63046;SDS011;62025;39.238;9.126;2023-11-19T01:09:08;6.75;;;2.33;;
63046;SDS011;62025;39.238;9.126;2023-11-19T01:11:34;8.07;;;2.25;;
63046;SDS011;62025;39.238;9.126;2023-11-19T01:14:00;8.10;;;2.58;;
63046;SDS011;62025;39.238;9.126;2023-11-19T01:16:27;7.57;;;2.10;;
63046;SDS011;62025;39.238;9.126;2023-11-19T01:18:53;6.00;;;1.60;;
63046;SDS011;62025;39.238;9.126;2023-11-19T01:21:19;6.15;;;1.90;;
63046;SDS011;62025;39.238;9.126;2023-11-19T01:23:45;6.43;;;1.60;;
63046;SDS011;62025;39.238;9.126;2023-11-19T01:26:11;12.70;;;2.33;;
63046;SDS011;62025;39.238;9.126;2023-11-19T01:28:38;7.38;;;1.90;;
63046;SDS011;62025;39.238;9.126;2023-11-19T01:31:14;8.25;;;1.95;;
63046;SDS011;62025;39.238;9.126;2023-11-19T01:33:41;8.52;;;2.67;;
63046;SDS011;62025;39.238;9.126;2023-11-19T01:36:07;6.97;;;2.05;;
63046;SDS011;62025;39.238;9.126;2023-11-19T01:38:34;9.70;;;2.15;;
63046;SDS011;62025;39.238;9.126;2023-11-19T01:41:00;9.35;;;1.90;;
63046;SDS011;62025;39.238;9.126;2023-11-19T01:46:01;8.15;;;1.88;;
63046;SDS011;62025;39.238;9.126;2023-11-19T01:48:29;5.57;;;1.70;;
63046;SDS011;62025;39.238;9.126;2023-11-19T01:50:56;5.20;;;1.75;;
63046;SDS011;62025;39.238;9.126;2023-11-19T01:53:23;6.07;;;2.10;;
63046;SDS011;62025;39.238;9.126;2023-11-19T01:55:49;8.68;;;2.00;;
63046;SDS011;62025;39.238;9.126;2023-11-19T01:58:17;8.02;;;1.88;;
63046;SDS011;62025;39.238;9.126;2023-11-19T02:00:44;7.30;;;1.80;;
63046;SDS011;62025;39.238;9.126;2023-11-19T02:03:10;10.73;;;1.95;;
63046;SDS011;62025;39.238;9.126;2023-11-19T02:05:37;11.27;;;1.85;;
63046;SDS011;62025;39.238;9.126;2023-11-19T02:08:03;8.40;;;1.55;;
63046;SDS011;62025;39.238;9.126;2023-11-19T02:10:29;8.73;;;1.73;;
63046;SDS011;62025;39.238;9.126;2023-11-19T02:12:57;4.75;;;1.38;;
63046;SDS011;62025;39.238;9.126;2023-11-19T02:15:24;6.45;;;1.58;;
63046;SDS011;62025;39.238;9.126;2023-11-19T02:17:52;7.38;;;1.70;;
63046;SDS011;62025;39.238;9.126;2023-11-19T02:20:18;6.18;;;1.88;;
63046;SDS011;62025;39.238;9.126;2023-11-19T02:22:46;6.53;;;1.30;;
63046;SDS011;62025;39.238;9.126;2023-11-19T02:25:27;6.82;;;1.55;;
63046;SDS011;62025;39.238;9.126;2023-11-19T02:27:56;7.28;;;1.40;;
63046;SDS011;62025;39.238;9.126;2023-11-19T02:30:24;9.10;;;1.77;;
63046;SDS011;62025;39.238;9.126;2023-11-19T02:32:57;4.45;;;1.40;;
63046;SDS011;62025;39.238;9.126;2023-11-19T02:35:26;5.13;;;1.27;;
63046;SDS011;62025;39.238;9.126;2023-11-19T02:37:52;10.10;;;1.55;;
63046;SDS011;62025;39.238;9.126;2023-11-19T02:40:19;4.45;;;1.30;;
63046;SDS011;62025;39.238;9.126;2023-11-19T02:42:45;8.05;;;2.45;;
63046;SDS011;62025;39.238;9.126;2023-11-19T02:45:10;5.70;;;1.20;;
63046;SDS011;62025;39.238;9.126;2023-11-19T02:47:40;5.15;;;1.38;;
63046;SDS011;62025;39.238;9.126;2023-11-19T02:50:09;5.07;;;1.95;;
63046;SDS011;62025;39.238;9.126;2023-11-19T02:52:43;6.75;;;1.30;;
63046;SDS011;62025;39.238;9.126;2023-11-19T02:55:11;4.88;;;1.15;;
63046;SDS011;62025;39.238;9.126;2023-11-19T02:57:38;6.05;;;1.60;;
63046;SDS011;62025;39.238;9.126;2023-11-19T03:00:23;6.65;;;1.50;;
63046;SDS011;62025;39.238;9.126;2023-11-19T03:02:50;6.25;;;1.15;;
63046;SDS011;62025;39.238;9.126;2023-11-19T03:05:30;6.32;;;1.15;;
63046;SDS011;62025;39.238;9.126;2023-11-19T03:07:56;6.03;;;1.05;;
63046;SDS011;62025;39.238;9.126;2023-11-19T03:10:22;7.60;;;1.20;;
63046;SDS011;62025;39.238;9.126;2023-11-19T03:12:49;9.70;;;1.50;;
63046;SDS011;62025;39.238;9.126;2023-11-19T03:15:15;5.43;;;1.10;;
63046;SDS011;62025;39.238;9.126;2023-11-19T03:17:41;4.72;;;1.05;;
63046;SDS011;62025;39.238;9.126;2023-11-19T03:20:11;4.75;;;1.25;;
63046;SDS011;62025;39.238;9.126;2023-11-19T03:22:40;3.28;;;1.20;;
63046;SDS011;62025;39.238;9.126;2023-11-19T03:25:07;5.22;;;1.30;;
63046;SDS011;62025;39.238;9.126;2023-11-19T03:27:34;5.40;;;1.40;;
63046;SDS011;62025;39.238;9.126;2023-11-19T03:30:09;6.70;;;1.83;;
63046;SDS011;62025;39.238;9.126;2023-11-19T03:32:35;8.43;;;1.95;;
63046;SDS011;62025;39.238;9.126;2023-11-19T03:35:01;3.85;;;1.30;;
63046;SDS011;62025;39.238;9.126;2023-11-19T03:37:29;6.43;;;1.35;;
63046;SDS011;62025;39.238;9.126;2023-11-19T03:39:57;4.32;;;1.00;;
63046;SDS011;62025;39.238;9.126;2023-11-19T03:42:28;5.90;;;1.52;;
63046;SDS011;62025;39.238;9.126;2023-11-19T03:44:57;8.40;;;1.20;;
63046;SDS011;62025;39.238;9.126;2023-11-19T03:47:23;8.35;;;1.38;;
63046;SDS011;62025;39.238;9.126;2023-11-19T03:49:49;6.80;;;1.48;;
63046;SDS011;62025;39.238;9.126;2023-11-19T03:52:16;4.45;;;1.27;;
63046;SDS011;62025;39.238;9.126;2023-11-19T03:54:42;4.95;;;1.33;;
63046;SDS011;62025;39.238;9.126;2023-11-19T03:57:08;5.50;;;1.50;;
63046;SDS011;62025;39.238;9.126;2023-11-19T03:59:36;6.95;;;1.70;;
63046;SDS011;62025;39.238;9.126;2023-11-19T04:02:02;6.68;;;1.27;;
63046;SDS011;62025;39.238;9.126;2023-11-19T04:04:28;7.60;;;1.20;;
63046;SDS011;62025;39.238;9.126;2023-11-19T04:06:57;4.45;;;1.45;;
63046;SDS011;62025;39.238;9.126;2023-11-19T04:09:24;6.20;;;1.40;;
63046;SDS011;62025;39.238;9.126;2023-11-19T04:11:50;5.13;;;1.27;;
63046;SDS011;62025;39.238;9.126;2023-11-19T04:14:16;4.05;;;1.45;;
63046;SDS011;62025;39.238;9.126;2023-11-19T04:16:43;6.85;;;1.52;;
63046;SDS011;62025;39.238;9.126;2023-11-19T04:19:10;4.80;;;1.00;;
63046;SDS011;62025;39.238;9.126;2023-11-19T04:21:37;4.03;;;1.13;;
63046;SDS011;62025;39.238;9.126;2023-11-19T04:24:06;5.18;;;1.45;;
63046;SDS011;62025;39.238;9.126;2023-11-19T04:26:33;4.90;;;1.30;;
63046;SDS011;62025;39.238;9.126;2023-11-19T04:28:59;5.78;;;1.38;;
63046;SDS011;62025;39.238;9.126;2023-11-19T04:31:28;6.38;;;1.15;;
63046;SDS011;62025;39.238;9.126;2023-11-19T04:33:56;8.95;;;1.42;;
63046;SDS011;62025;39.238;9.126;2023-11-19T04:36:22;4.07;;;1.02;;
63046;SDS011;62025;39.238;9.126;2023-11-19T04:38:49;3.78;;;1.00;;
63046;SDS011;62025;39.238;9.126;2023-11-19T04:41:16;6.57;;;1.45;;
63046;SDS011;62025;39.238;9.126;2023-11-19T04:43:41;5.03;;;1.00;;
63046;SDS011;62025;39.238;9.126;2023-11-19T04:46:09;4.78;;;1.83;;
63046;SDS011;62025;39.238;9.126;2023-11-19T04:48:35;5.90;;;1.10;;
63046;SDS011;62025;39.238;9.126;2023-11-19T04:51:01;5.47;;;1.20;;
63046;SDS011;62025;39.238;9.126;2023-11-19T04:53:29;4.35;;;1.00;;
63046;SDS011;62025;39.238;9.126;2023-11-19T04:55:55;6.38;;;1.30;;
63046;SDS011;62025;39.238;9.126;2023-11-19T04:58:21;5.82;;;1.35;;
63046;SDS011;62025;39.238;9.126;2023-11-19T05:00:46;2.08;;;0.80;;
63046;SDS011;62025;39.238;9.126;2023-11-19T05:03:12;3.15;;;0.90;;
63046;SDS011;62025;39.238;9.126;2023-11-19T05:05:38;6.75;;;1.08;;
63046;SDS011;62025;39.238;9.126;2023-11-19T05:08:04;3.75;;;1.08;;
63046;SDS011;62025;39.238;9.126;2023-11-19T05:10:30;7.65;;;1.30;;
63046;SDS011;62025;39.238;9.126;2023-11-19T05:12:56;3.42;;;0.98;;
63046;SDS011;62025;39.238;9.126;2023-11-19T05:15:22;3.00;;;1.00;;
63046;SDS011;62025;39.238;9.126;2023-11-19T05:17:48;10.30;;;1.02;;
63046;SDS011;62025;39.238;9.126;2023-11-19T05:20:13;4.45;;;1.00;;
63046;SDS011;62025;39.238;9.126;2023-11-19T05:22:41;4.65;;;0.90;;
63046;SDS011;62025;39.238;9.126;2023-11-19T05:25:07;5.30;;;1.25;;
63046;SDS011;62025;39.238;9.126;2023-11-19T05:27:34;3.63;;;1.00;;
63046;SDS011;62025;39.238;9.126;2023-11-19T05:30:01;4.15;;;1.10;;
63046;SDS011;62025;39.238;9.126;2023-11-19T05:32:28;6.53;;;1.92;;
63046;SDS011;62025;39.238;9.126;2023-11-19T05:34:53;5.05;;;0.95;;
63046;SDS011;62025;39.238;9.126;2023-11-19T05:37:19;1.67;;;0.80;;
63046;SDS011;62025;39.238;9.126;2023-11-19T05:39:45;8.35;;;1.45;;
63046;SDS011;62025;39.238;9.126;2023-11-19T05:42:11;4.60;;;1.10;;
63046;SDS011;62025;39.238;9.126;2023-11-19T05:44:37;4.68;;;1.30;;
63046;SDS011;62025;39.238;9.126;2023-11-19T05:47:03;7.70;;;1.40;;
63046;SDS011;62025;39.238;9.126;2023-11-19T05:49:29;4.35;;;1.30;;
63046;SDS011;62025;39.238;9.126;2023-11-19T05:51:56;5.30;;;1.98;;
63046;SDS011;62025;39.238;9.126;2023-11-19T05:54:22;4.68;;;1.60;;
63046;SDS011;62025;39.238;9.126;2023-11-19T05:56:48;4.30;;;1.65;;
63046;SDS011;62025;39.238;9.126;2023-11-19T05:59:14;7.97;;;1.77;;
63046;SDS011;62025;39.238;9.126;2023-11-19T06:01:43;7.70;;;1.67;;
63046;SDS011;62025;39.238;9.126;2023-11-19T06:04:09;4.88;;;1.77;;
63046;SDS011;62025;39.238;9.126;2023-11-19T06:06:35;10.32;;;2.30;;
63046;SDS011;62025;39.238;9.126;2023-11-19T06:09:01;5.35;;;1.80;;
63046;SDS011;62025;39.238;9.126;2023-11-19T06:11:28;5.57;;;1.90;;
63046;SDS011;62025;39.238;9.126;2023-11-19T06:13:54;7.15;;;2.35;;
63046;SDS011;62025;39.238;9.126;2023-11-19T06:16:21;5.93;;;1.98;;
63046;SDS011;62025;39.238;9.126;2023-11-19T06:18:48;6.18;;;2.30;;
63046;SDS011;62025;39.238;9.126;2023-11-19T06:21:14;5.35;;;1.73;;
63046;SDS011;62025;39.238;9.126;2023-11-19T06:26:30;8.18;;;1.90;;
63046;SDS011;62025;39.238;9.126;2023-11-19T06:28:56;7.25;;;2.63;;
63046;SDS011;62025;39.238;9.126;2023-11-19T06:31:22;6.95;;;1.92;;
63046;SDS011;62025;39.238;9.126;2023-11-19T06:33:47;4.10;;;2.33;;
63046;SDS011;62025;39.238;9.126;2023-11-19T06:36:16;8.05;;;2.70;;
63046;SDS011;62025;39.238;9.126;2023-11-19T06:38:42;8.13;;;3.65;;
63046;SDS011;62025;39.238;9.126;2023-11-19T06:41:08;6.88;;;2.58;;
63046;SDS011;62025;39.238;9.126;2023-11-19T06:43:37;7.97;;;3.00;;
63046;SDS011;62025;39.238;9.126;2023-11-19T06:46:03;6.68;;;2.55;;
63046;SDS011;62025;39.238;9.126;2023-11-19T06:48:33;8.50;;;3.17;;
63046;SDS011;62025;39.238;9.126;2023-11-19T06:50:59;6.22;;;2.55;;
63046;SDS011;62025;39.238;9.126;2023-11-19T06:53:25;7.45;;;2.83;;
63046;SDS011;62025;39.238;9.126;2023-11-19T06:55:53;8.32;;;2.50;;
63046;SDS011;62025;39.238;9.126;2023-11-19T06:58:19;6.93;;;2.45;;
63046;SDS011;62025;39.238;9.126;2023-11-19T07:00:45;14.25;;;3.08;;
63046;SDS011;62025;39.238;9.126;2023-11-19T07:03:12;8.18;;;2.85;;
63046;SDS011;62025;39.238;9.126;2023-11-19T07:05:38;7.25;;;2.97;;
63046;SDS011;62025;39.238;9.126;2023-11-19T07:08:05;7.80;;;2.72;;
63046;SDS011;62025;39.238;9.126;2023-11-19T07:10:32;6.32;;;2.50;;
63046;SDS011;62025;39.238;9.126;2023-11-19T07:12:59;7.47;;;2.28;;
63046;SDS011;62025;39.238;9.126;2023-11-19T07:15:25;5.15;;;2.40;;
63046;SDS011;62025;39.238;9.126;2023-11-19T07:17:51;11.07;;;3.65;;
63046;SDS011;62025;39.238;9.126;2023-11-19T07:20:19;11.73;;;3.30;;
63046;SDS011;62025;39.238;9.126;2023-11-19T07:22:45;5.90;;;2.47;;
63046;SDS011;62025;39.238;9.126;2023-11-19T07:25:14;5.78;;;2.33;;
63046;SDS011;62025;39.238;9.126;2023-11-19T07:27:40;7.53;;;2.15;;
63046;SDS011;62025;39.238;9.126;2023-11-19T07:30:06;10.52;;;2.70;;
63046;SDS011;62025;39.238;9.126;2023-11-19T07:32:35;11.70;;;2.97;;
63046;SDS011;62025;39.238;9.126;2023-11-19T07:35:00;4.72;;;2.17;;
63046;SDS011;62025;39.238;9.126;2023-11-19T07:37:26;7.57;;;2.60;;
63046;SDS011;62025;39.238;9.126;2023-11-19T07:39:52;7.57;;;2.58;;
63046;SDS011;62025;39.238;9.126;2023-11-19T07:42:18;12.00;;;2.47;;
63046;SDS011;62025;39.238;9.126;2023-11-19T07:44:44;12.02;;;2.90;;
63046;SDS011;62025;39.238;9.126;2023-11-19T07:47:10;7.30;;;2.35;;
63046;SDS011;62025;39.238;9.126;2023-11-19T07:49:36;5.93;;;2.22;;
63046;SDS011;62025;39.238;9.126;2023-11-19T07:52:02;7.80;;;2.38;;
63046;SDS011;62025;39.238;9.126;2023-11-19T07:54:28;6.75;;;2.47;;
63046;SDS011;62025;39.238;9.126;2023-11-19T07:56:54;9.07;;;2.70;;
63046;SDS011;62025;39.238;9.126;2023-11-19T07:59:20;7.38;;;2.47;;
63046;SDS011;62025;39.238;9.126;2023-11-19T08:01:46;8.32;;;2.65;;
63046;SDS011;62025;39.238;9.126;2023-11-19T08:04:13;9.57;;;2.60;;
63046;SDS011;62025;39.238;9.126;2023-11-19T08:06:39;7.50;;;2.42;;
63046;SDS011;62025;39.238;9.126;2023-11-19T08:09:05;7.50;;;2.63;;
63046;SDS011;62025;39.238;9.126;2023-11-19T08:11:31;8.52;;;2.90;;
63046;SDS011;62025;39.238;9.126;2023-11-19T08:13:58;9.85;;;3.30;;
63046;SDS011;62025;39.238;9.126;2023-11-19T08:16:24;9.32;;;2.90;;
63046;SDS011;62025;39.238;9.126;2023-11-19T08:18:50;8.57;;;3.17;;
63046;SDS011;62025;39.238;9.126;2023-11-19T08:21:16;7.45;;;3.03;;
63046;SDS011;62025;39.238;9.126;2023-11-19T08:23:42;8.23;;;2.85;;
63046;SDS011;62025;39.238;9.126;2023-11-19T08:26:09;9.65;;;2.80;;
63046;SDS011;62025;39.238;9.126;2023-11-19T08:28:35;7.53;;;3.00;;
63046;SDS011;62025;39.238;9.126;2023-11-19T08:31:02;8.30;;;2.75;;
63046;SDS011;62025;39.238;9.126;2023-11-19T08:33:30;5.55;;;2.83;;
63046;SDS011;62025;39.238;9.126;2023-11-19T08:35:56;9.05;;;2.83;;
63046;SDS011;62025;39.238;9.126;2023-11-19T08:38:22;8.10;;;3.60;;
63046;SDS011;62025;39.238;9.126;2023-11-19T08:40:48;10.75;;;4.78;;
63046;SDS011;62025;39.238;9.126;2023-11-19T08:43:14;14.05;;;5.40;;
63046;SDS011;62025;39.238;9.126;2023-11-19T08:45:41;11.93;;;5.70;;
63046;SDS011;62025;39.238;9.126;2023-11-19T08:48:07;16.63;;;5.78;;
63046;SDS011;62025;39.238;9.126;2023-11-19T08:50:33;10.48;;;5.03;;
63046;SDS011;62025;39.238;9.126;2023-11-19T08:53:00;9.18;;;4.32;;
63046;SDS011;62025;39.238;9.126;2023-11-19T08:55:25;9.93;;;4.68;;
63046;SDS011;62025;39.238;9.126;2023-11-19T08:57:51;9.20;;;4.43;;
63046;SDS011;62025;39.238;9.126;2023-11-19T09:00:17;9.98;;;4.70;;
63046;SDS011;62025;39.238;9.126;2023-11-19T09:02:43;8.02;;;4.40;;
63046;SDS011;62025;39.238;9.126;2023-11-19T09:05:09;13.52;;;4.40;;
63046;SDS011;62025;39.238;9.126;2023-11-19T09:07:35;10.38;;;4.22;;
63046;SDS011;62025;39.238;9.126;2023-11-19T09:10:01;8.93;;;3.45;;
63046;SDS011;62025;39.238;9.126;2023-11-19T09:12:26;11.45;;;3.45;;
63046;SDS011;62025;39.238;9.126;2023-11-19T09:14:52;11.07;;;3.55;;
63046;SDS011;62025;39.238;9.126;2023-11-19T09:17:18;7.45;;;2.80;;
63046;SDS011;62025;39.238;9.126;2023-11-19T09:19:44;8.38;;;2.50;;
63046;SDS011;62025;39.238;9.126;2023-11-19T09:22:10;9.63;;;3.15;;
63046;SDS011;62025;39.238;9.126;2023-11-19T09:24:36;8.23;;;3.13;;
63046;SDS011;62025;39.238;9.126;2023-11-19T09:27:02;6.35;;;3.08;;
63046;SDS011;62025;39.238;9.126;2023-11-19T09:29:31;9.15;;;2.80;;
63046;SDS011;62025;39.238;9.126;2023-11-19T09:31:57;7.97;;;3.58;;
63046;SDS011;62025;39.238;9.126;2023-11-19T09:34:22;10.48;;;4.40;;
63046;SDS011;62025;39.238;9.126;2023-11-19T09:36:48;7.55;;;3.05;;
63046;SDS011;62025;39.238;9.126;2023-11-19T09:39:14;12.07;;;3.95;;
63046;SDS011;62025;39.238;9.126;2023-11-19T09:41:40;7.30;;;3.17;;
63046;SDS011;62025;39.238;9.126;2023-11-19T09:44:07;10.38;;;3.13;;
63046;SDS011;62025;39.238;9.126;2023-11-19T09:46:34;7.32;;;3.22;;
63046;SDS011;62025;39.238;9.126;2023-11-19T09:49:02;10.18;;;3.35;;
63046;SDS011;62025;39.238;9.126;2023-11-19T09:51:29;5.65;;;2.72;;
63046;SDS011;62025;39.238;9.126;2023-11-19T09:53:55;7.22;;;2.50;;
63046;SDS011;62025;39.238;9.126;2023-11-19T09:56:21;8.55;;;2.70;;
63046;SDS011;62025;39.238;9.126;2023-11-19T09:58:48;7.03;;;2.40;;
63046;SDS011;62025;39.238;9.126;2023-11-19T10:01:14;5.63;;;2.63;;
63046;SDS011;62025;39.238;9.126;2023-11-19T10:03:40;7.38;;;2.83;;
63046;SDS011;62025;39.238;9.126;2023-11-19T10:06:09;9.30;;;3.10;;
63046;SDS011;62025;39.238;9.126;2023-11-19T10:08:39;9.77;;;3.97;;
63046;SDS011;62025;39.238;9.126;2023-11-19T10:11:06;5.70;;;3.03;;
63046;SDS011;62025;39.238;9.126;2023-11-19T10:13:36;5.65;;;2.95;;
63046;SDS011;62025;39.238;9.126;2023-11-19T10:16:12;7.15;;;3.45;;
63046;SDS011;62025;39.238;9.126;2023-11-19T10:18:42;6.13;;;2.60;;
63046;SDS011;62025;39.238;9.126;2023-11-19T10:21:12;6.03;;;2.65;;
63046;SDS011;62025;39.238;9.126;2023-11-19T10:23:54;4.75;;;1.90;;
63046;SDS011;62025;39.238;9.126;2023-11-19T10:26:22;7.60;;;2.15;;
63046;SDS011;62025;39.238;9.126;2023-11-19T10:28:49;5.32;;;1.80;;
63046;SDS011;62025;39.238;9.126;2023-11-19T10:31:15;6.80;;;2.17;;
63046;SDS011;62025;39.238;9.126;2023-11-19T10:33:43;5.75;;;1.98;;
63046;SDS011;62025;39.238;9.126;2023-11-19T10:36:10;8.07;;;2.28;;
63046;SDS011;62025;39.238;9.126;2023-11-19T10:38:40;6.88;;;2.15;;
63046;SDS011;62025;39.238;9.126;2023-11-19T10:41:26;8.32;;;2.67;;
63046;SDS011;62025;39.238;9.126;2023-11-19T10:43:56;8.45;;;3.63;;
63046;SDS011;62025;39.238;9.126;2023-11-19T10:46:22;7.32;;;2.80;;
63046;SDS011;62025;39.238;9.126;2023-11-19T10:48:48;8.90;;;3.40;;
63046;SDS011;62025;39.238;9.126;2023-11-19T10:51:20;7.38;;;2.97;;
63046;SDS011;62025;39.238;9.126;2023-11-19T10:53:49;7.57;;;3.10;;
63046;SDS011;62025;39.238;9.126;2023-11-19T10:56:18;8.23;;;3.35;;
63046;SDS011;62025;39.238;9.126;2023-11-19T10:58:50;7.93;;;3.67;;
63046;SDS011;62025;39.238;9.126;2023-11-19T11:01:21;9.88;;;4.55;;
63046;SDS011;62025;39.238;9.126;2023-11-19T11:03:52;8.10;;;4.28;;
63046;SDS011;62025;39.238;9.126;2023-11-19T11:06:19;8.52;;;3.90;;
63046;SDS011;62025;39.238;9.126;2023-11-19T11:08:47;7.28;;;3.70;;
63046;SDS011;62025;39.238;9.126;2023-11-19T11:11:15;9.07;;;4.45;;
63046;SDS011;62025;39.238;9.126;2023-11-19T11:13:46;8.60;;;2.95;;
63046;SDS011;62025;39.238;9.126;2023-11-19T11:16:14;9.98;;;3.60;;
63046;SDS011;62025;39.238;9.126;2023-11-19T11:18:44;8.07;;;3.58;;
63046;SDS011;62025;39.238;9.126;2023-11-19T11:21:17;5.82;;;3.50;;
63046;SDS011;62025;39.238;9.126;2023-11-19T11:24:04;7.45;;;3.63;;
63046;SDS011;62025;39.238;9.126;2023-11-19T11:32:35;8.68;;;3.70;;
63046;SDS011;62025;39.238;9.126;2023-11-19T11:35:24;10.85;;;4.40;;
63046;SDS011;62025;39.238;9.126;2023-11-19T11:38:00;10.60;;;5.22;;
63046;SDS011;62025;39.238;9.126;2023-11-19T11:40:29;9.13;;;3.65;;
63046;SDS011;62025;39.238;9.126;2023-11-19T11:42:57;9.93;;;3.60;;
63046;SDS011;62025;39.238;9.126;2023-11-19T11:45:35;11.32;;;3.70;;
63046;SDS011;62025;39.238;9.126;2023-11-19T11:48:09;8.48;;;3.08;;
63046;SDS011;62025;39.238;9.126;2023-11-19T11:50:37;11.35;;;3.95;;
63046;SDS011;62025;39.238;9.126;2023-11-19T11:53:17;7.50;;;4.03;;
63046;SDS011;62025;39.238;9.126;2023-11-19T12:00:42;6.47;;;3.38;;
63046;SDS011;62025;39.238;9.126;2023-11-19T12:03:08;9.73;;;3.70;;
63046;SDS011;62025;39.238;9.126;2023-11-19T12:05:41;12.25;;;3.70;;
63046;SDS011;62025;39.238;9.126;2023-11-19T12:08:09;9.07;;;3.30;;
63046;SDS011;62025;39.238;9.126;2023-11-19T12:10:46;17.00;;;4.90;;
63046;SDS011;62025;39.238;9.126;2023-11-19T12:13:14;9.23;;;3.45;;
63046;SDS011;62025;39.238;9.126;2023-11-19T12:18:32;11.95;;;4.07;;
63046;SDS011;62025;39.238;9.126;2023-11-19T12:20:58;6.72;;;2.70;;
63046;SDS011;62025;39.238;9.126;2023-11-19T12:23:31;5.57;;;2.40;;
63046;SDS011;62025;39.238;9.126;2023-11-19T12:25:57;8.55;;;3.03;;
63046;SDS011;62025;39.238;9.126;2023-11-19T12:28:24;7.60;;;2.40;;
63046;SDS011;62025;39.238;9.126;2023-11-19T12:30:52;8.25;;;2.78;;
63046;SDS011;62025;39.238;9.126;2023-11-19T12:33:18;5.10;;;1.85;;
63046;SDS011;62025;39.238;9.126;2023-11-19T12:35:45;5.43;;;1.92;;
63046;SDS011;62025;39.238;9.126;2023-11-19T12:38:21;5.40;;;1.50;;
63046;SDS011;62025;39.238;9.126;2023-11-19T12:41:02;6.22;;;1.70;;
63046;SDS011;62025;39.238;9.126;2023-11-19T12:43:31;5.63;;;1.70;;
63046;SDS011;62025;39.238;9.126;2023-11-19T12:45:59;10.93;;;2.35;;
63046;SDS011;62025;39.238;9.126;2023-11-19T12:48:25;9.15;;;2.30;;
63046;SDS011;62025;39.238;9.126;2023-11-19T12:53:24;7.28;;;2.63;;
63046;SDS011;62025;39.238;9.126;2023-11-19T12:55:51;5.00;;;1.88;;
63046;SDS011;62025;39.238;9.126;2023-11-19T12:58:36;6.13;;;2.00;;
63046;SDS011;62025;39.238;9.126;2023-11-19T13:01:03;8.68;;;2.00;;
63046;SDS011;62025;39.238;9.126;2023-11-19T13:03:36;4.82;;;1.75;;
63046;SDS011;62025;39.238;9.126;2023-11-19T13:06:07;5.85;;;1.90;;
63046;SDS011;62025;39.238;9.126;2023-11-19T13:08:42;3.97;;;1.60;;
63046;SDS011;62025;39.238;9.126;2023-11-19T13:11:12;6.32;;;2.20;;
63046;SDS011;62025;39.238;9.126;2023-11-19T13:16:23;7.45;;;1.60;;
63046;SDS011;62025;39.238;9.126;2023-11-19T13:18:50;6.55;;;1.90;;
63046;SDS011;62025;39.238;9.126;2023-11-19T13:21:16;7.38;;;2.00;;
63046;SDS011;62025;39.238;9.126;2023-11-19T13:23:43;5.45;;;2.03;;
63046;SDS011;62025;39.238;9.126;2023-11-19T13:26:09;7.85;;;2.17;;
63046;SDS011;62025;39.238;9.126;2023-11-19T13:28:36;8.10;;;2.45;;
63046;SDS011;62025;39.238;9.126;2023-11-19T13:31:03;5.35;;;1.90;;
63046;SDS011;62025;39.238;9.126;2023-11-19T13:33:29;6.75;;;1.83;;
63046;SDS011;62025;39.238;9.126;2023-11-19T13:35:55;3.97;;;1.60;;
63046;SDS011;62025;39.238;9.126;2023-11-19T13:38:22;6.57;;;1.80;;
63046;SDS011;62025;39.238;9.126;2023-11-19T13:40:51;5.80;;;2.35;;
63046;SDS011;62025;39.238;9.126;2023-11-19T13:43:17;6.50;;;1.80;;
63046;SDS011;62025;39.238;9.126;2023-11-19T13:45:42;6.20;;;2.30;;
63046;SDS011;62025;39.238;9.126;2023-11-19T13:48:08;4.25;;;2.20;;
63046;SDS011;62025;39.238;9.126;2023-11-19T13:50:34;4.60;;;1.52;;
63046;SDS011;62025;39.238;9.126;2023-11-19T13:53:00;4.80;;;1.50;;
63046;SDS011;62025;39.238;9.126;2023-11-19T13:55:26;7.65;;;1.48;;
63046;SDS011;62025;39.238;9.126;2023-11-19T13:57:52;5.43;;;1.42;;
63046;SDS011;62025;39.238;9.126;2023-11-19T14:00:18;5.70;;;1.58;;
63046;SDS011;62025;39.238;9.126;2023-11-19T14:02:44;5.68;;;1.40;;
63046;SDS011;62025;39.238;9.126;2023-11-19T14:05:12;5.47;;;1.50;;
63046;SDS011;62025;39.238;9.126;2023-11-19T14:07:41;4.85;;;1.30;;
63046;SDS011;62025;39.238;9.126;2023-11-19T14:10:08;7.43;;;1.60;;
63046;SDS011;62025;39.238;9.126;2023-11-19T14:12:39;10.82;;;1.60;;
63046;SDS011;62025;39.238;9.126;2023-11-19T14:15:05;2.80;;;1.63;;
63046;SDS011;62025;39.238;9.126;2023-11-19T14:17:33;6.18;;;1.48;;
63046;SDS011;62025;39.238;9.126;2023-11-19T14:19:59;4.53;;;1.50;;
63046;SDS011;62025;39.238;9.126;2023-11-19T14:22:25;4.82;;;1.40;;
63046;SDS011;62025;39.238;9.126;2023-11-19T14:24:51;6.22;;;2.20;;
63046;SDS011;62025;39.238;9.126;2023-11-19T14:27:17;5.43;;;1.80;;
63046;SDS011;62025;39.238;9.126;2023-11-19T14:29:43;5.65;;;1.55;;
63046;SDS011;62025;39.238;9.126;2023-11-19T14:32:10;6.97;;;2.33;;
63046;SDS011;62025;39.238;9.126;2023-11-19T14:34:36;5.75;;;1.40;;
63046;SDS011;62025;39.238;9.126;2023-11-19T14:37:05;6.75;;;1.80;;
63046;SDS011;62025;39.238;9.126;2023-11-19T14:39:31;4.45;;;1.48;;
63046;SDS011;62025;39.238;9.126;2023-11-19T14:41:57;8.57;;;1.52;;
63046;SDS011;62025;39.238;9.126;2023-11-19T14:44:26;6.95;;;1.38;;
63046;SDS011;62025;39.238;9.126;2023-11-19T14:46:52;5.63;;;1.98;;
63046;SDS011;62025;39.238;9.126;2023-11-19T14:49:18;6.65;;;1.50;;
63046;SDS011;62025;39.238;9.126;2023-11-19T14:51:44;4.68;;;1.40;;
63046;SDS011;62025;39.238;9.126;2023-11-19T14:54:09;7.63;;;1.90;;
63046;SDS011;62025;39.238;9.126;2023-11-19T14:56:35;7.97;;;1.50;;
63046;SDS011;62025;39.238;9.126;2023-11-19T14:59:01;5.63;;;1.40;;
63046;SDS011;62025;39.238;9.126;2023-11-19T15:01:27;5.15;;;1.38;;
63046;SDS011;62025;39.238;9.126;2023-11-19T15:03:54;5.53;;;1.92;;
63046;SDS011;62025;39.238;9.126;2023-11-19T15:06:22;5.85;;;1.40;;
63046;SDS011;62025;39.238;9.126;2023-11-19T15:08:50;8.63;;;1.73;;
63046;SDS011;62025;39.238;9.126;2023-11-19T15:11:16;5.40;;;1.30;;
63046;SDS011;62025;39.238;9.126;2023-11-19T15:13:42;7.10;;;1.67;;